Weather at Cranbrook/Canadian Rockies International Airport

Public forecast

Using degrees Celsius for public forecast. Weather courtesy of forecast.io.

Current aviation weather report (METAR) for Cranbrook/Canadian Rockies International Airport

Retrieved 2021/01/28 13:00 UTC (47 minutes ago):

CYXC 281300Z 28003KT 4SM -SN OVC017 M04/M05 A2978 RMK SC8 SLP129

Aviation forecast (TAF) for Cranbrook/Canadian Rockies International Airport

Retrieved 2021/01/28 13:39 UTC (8 minutes ago):

TAF CYXC 281238Z 2813/2901 VRB03KT 3SM -SN OVC015 TEMPO 2813/2820 P6SM -SN SCT015 OVC040 PROB30 2813/2820 11/2SM -SHSN FM282000 VRB03KT P6SM SCT020 BKN050 TEMPO 2820/2901 4SM -SN BKN020 OVC050 RMK NXT FCST BY 281900Z